createdAt,value
2018-06-16T00:00:59.670Z,8.20
2018-06-16T00:03:04.411Z,7.90
2018-06-16T00:05:09.247Z,9.10
2018-06-16T00:07:13.914Z,7.60
2018-06-16T00:09:18.620Z,8.10
2018-06-16T00:11:23.268Z,8.20
2018-06-16T00:13:27.979Z,6.80
2018-06-16T00:15:32.637Z,7.43
2018-06-16T00:17:37.648Z,8.07
2018-06-16T00:19:42.506Z,7.27
2018-06-16T00:21:47.144Z,7.03
2018-06-16T00:23:51.892Z,7.07
2018-06-16T00:25:56.568Z,7.13
2018-06-16T00:28:01.147Z,6.00
2018-06-16T00:30:05.956Z,6.93
2018-06-16T00:32:10.565Z,6.50
2018-06-16T00:34:15.358Z,6.30
2018-06-16T00:36:25.373Z,7.10
2018-06-16T00:38:34.740Z,6.97
2018-06-16T00:40:39.596Z,6.80
2018-06-16T00:42:44.961Z,6.90
2018-06-16T00:44:49.789Z,6.80
2018-06-16T00:46:54.955Z,7.13
2018-06-16T00:48:59.675Z,6.57
2018-06-16T00:51:04.372Z,7.53
2018-06-16T00:53:08.985Z,6.90
2018-06-16T00:55:13.761Z,6.67
2018-06-16T00:57:50.493Z,7.60
2018-06-16T00:59:55.197Z,6.40
2018-06-16T01:01:59.903Z,6.97
2018-06-16T01:04:04.589Z,6.97
2018-06-16T01:06:10.308Z,7.60
2018-06-16T01:08:14.989Z,7.70
2018-06-16T01:10:20.018Z,6.70
2018-06-16T01:12:25.154Z,6.90
2018-06-16T01:14:30.166Z,7.23
2018-06-16T01:16:34.847Z,6.70
2018-06-16T01:18:39.725Z,7.30
2018-06-16T01:20:44.384Z,6.90
2018-06-16T01:22:50.497Z,7.10
2018-06-16T01:24:55.453Z,7.07
2018-06-16T01:27:01.128Z,7.40
2018-06-16T01:29:05.802Z,6.70
2018-06-16T01:31:10.469Z,7.20
2018-06-16T01:33:15.902Z,7.50
2018-06-16T01:36:45.192Z,8.17
2018-06-16T01:38:49.942Z,7.47
2018-06-16T01:40:54.562Z,7.70
2018-06-16T01:42:59.159Z,8.37
2018-06-16T01:45:06.015Z,8.03
2018-06-16T01:47:14.796Z,7.33
2018-06-16T01:49:19.436Z,7.27
2018-06-16T01:51:24.063Z,7.70
2018-06-16T01:53:29.397Z,7.73
2018-06-16T01:55:34.293Z,6.20
2018-06-16T01:57:38.911Z,7.73
2018-06-16T01:59:43.805Z,7.37
2018-06-16T02:01:48.529Z,8.20
2018-06-16T02:03:53.167Z,8.30
2018-06-16T02:05:57.822Z,8.20
2018-06-16T02:08:02.589Z,8.40
2018-06-16T02:10:07.199Z,7.77
2018-06-16T02:12:11.819Z,8.10
2018-06-16T02:14:16.446Z,8.33
2018-06-16T02:16:21.187Z,9.20
2018-06-16T02:18:25.999Z,8.27
2018-06-16T02:20:30.637Z,8.50
2018-06-16T02:22:35.226Z,7.73
2018-06-16T02:24:40.132Z,7.77
2018-06-16T02:26:44.831Z,8.70
2018-06-16T02:28:49.474Z,7.83
2018-06-16T02:30:54.096Z,7.87
2018-06-16T02:32:58.675Z,7.40
2018-06-16T02:35:03.264Z,8.03
2018-06-16T02:37:07.962Z,7.63
2018-06-16T02:39:13.750Z,8.20
2018-06-16T02:41:19.496Z,8.63
2018-06-16T02:43:24.155Z,7.97
2018-06-16T02:45:28.983Z,7.70
2018-06-16T02:47:33.582Z,8.50
2018-06-16T02:49:38.788Z,8.47
2018-06-16T02:51:43.486Z,8.20
2018-06-16T02:53:48.244Z,8.50
2018-06-16T02:55:52.900Z,7.63
2018-06-16T02:57:57.562Z,8.70
2018-06-16T03:00:02.170Z,8.27
2018-06-16T03:02:06.909Z,8.40
2018-06-16T03:04:11.495Z,8.77
2018-06-16T03:06:16.167Z,7.10
2018-06-16T03:08:20.776Z,7.67
2018-06-16T03:10:25.404Z,8.10
2018-06-16T03:12:30.167Z,7.33
2018-06-16T03:14:34.806Z,8.13
2018-06-16T03:16:39.447Z,7.83
2018-06-16T03:18:44.214Z,7.13
2018-06-16T03:20:48.851Z,7.10
2018-06-16T03:22:53.733Z,7.40
2018-06-16T03:24:58.275Z,8.10
2018-06-16T03:27:02.998Z,9.00
2018-06-16T03:29:07.585Z,7.60
2018-06-16T03:31:12.300Z,9.53
2018-06-16T03:33:16.856Z,8.57
2018-06-16T03:35:21.491Z,7.90
2018-06-16T03:37:26.134Z,8.13
2018-06-16T03:39:30.763Z,8.63
2018-06-16T03:41:35.378Z,7.30
2018-06-16T03:43:40.016Z,8.27
2018-06-16T03:45:44.596Z,9.03
2018-06-16T03:47:49.318Z,9.27
2018-06-16T03:49:53.915Z,8.47
2018-06-16T03:51:58.637Z,8.03
2018-06-16T03:54:03.393Z,8.33
2018-06-16T03:56:08.096Z,8.50
2018-06-16T03:58:12.772Z,8.43
2018-06-16T04:00:18.483Z,9.03
2018-06-16T04:02:23.099Z,9.10
2018-06-16T04:04:27.851Z,9.07
2018-06-16T04:06:32.484Z,8.60
2018-06-16T04:08:37.120Z,7.83
2018-06-16T04:10:41.672Z,7.73
2018-06-16T04:12:46.375Z,9.13
2018-06-16T04:14:52.001Z,8.37
2018-06-16T04:16:57.947Z,8.00
2018-06-16T04:19:02.503Z,8.00
2018-06-16T04:21:07.282Z,9.77
2018-06-16T04:23:11.937Z,9.07
2018-06-16T04:25:16.606Z,8.50
2018-06-16T04:27:21.347Z,9.57
2018-06-16T04:29:25.998Z,8.13
2018-06-16T04:31:30.602Z,8.83
2018-06-16T04:33:35.209Z,8.83
2018-06-16T04:35:39.980Z,9.07
2018-06-16T04:37:44.752Z,9.00
2018-06-16T04:39:49.507Z,8.50
2018-06-16T04:41:54.209Z,9.60
2018-06-16T04:43:58.826Z,8.53
2018-06-16T04:46:03.527Z,9.00
2018-06-16T04:48:08.202Z,9.30
2018-06-16T04:50:12.875Z,9.10
2018-06-16T04:52:17.560Z,9.57
2018-06-16T04:54:22.479Z,8.40
2018-06-16T04:56:28.195Z,8.50
2018-06-16T04:58:32.959Z,8.20
2018-06-16T05:00:37.595Z,9.13
2018-06-16T05:02:42.463Z,9.03
2018-06-16T05:04:47.105Z,9.80
2018-06-16T05:06:51.831Z,9.73
2018-06-16T05:08:56.557Z,10.30
2018-06-16T05:11:01.254Z,9.60
2018-06-16T05:13:05.937Z,10.30
2018-06-16T05:15:10.530Z,9.30
2018-06-16T05:17:15.177Z,9.83
2018-06-16T05:19:20.047Z,9.50
2018-06-16T05:21:24.721Z,10.23
2018-06-16T05:23:30.715Z,10.43
2018-06-16T05:25:35.490Z,9.80
2018-06-16T05:27:40.559Z,11.20
2018-06-16T05:29:45.637Z,11.40
2018-06-16T05:31:50.439Z,11.43
2018-06-16T05:33:55.229Z,10.90
2018-06-16T05:35:59.927Z,11.80
2018-06-16T05:38:05.028Z,11.40
2018-06-16T05:40:09.767Z,11.80
2018-06-16T05:42:14.490Z,12.00
2018-06-16T05:44:19.632Z,10.87
2018-06-16T05:46:25.967Z,11.63
2018-06-16T05:48:30.627Z,9.80
2018-06-16T05:50:35.214Z,9.90
2018-06-16T05:52:39.945Z,10.80
2018-06-16T05:54:44.592Z,10.10
2018-06-16T05:56:49.345Z,11.13
2018-06-16T05:58:54.040Z,10.77
2018-06-16T06:00:58.773Z,10.40
2018-06-16T06:03:04.818Z,10.90
2018-06-16T06:05:09.424Z,10.30
2018-06-16T06:07:14.321Z,10.10
2018-06-16T06:09:19.091Z,10.20
2018-06-16T06:11:23.750Z,9.93
2018-06-16T06:13:28.373Z,9.73
2018-06-16T06:15:33.249Z,10.20
2018-06-16T06:17:37.863Z,10.30
2018-06-16T06:19:42.589Z,11.37
2018-06-16T06:21:47.390Z,11.60
2018-06-16T06:32:55.081Z,11.73
2018-06-16T06:34:59.922Z,11.60
2018-06-16T06:37:04.728Z,11.43
2018-06-16T06:39:10.202Z,11.53
2018-06-16T06:41:14.925Z,11.80
2018-06-16T06:43:20.974Z,11.43
2018-06-16T06:45:25.654Z,12.20
2018-06-16T06:47:30.481Z,11.80
2018-06-16T06:49:35.206Z,12.27
2018-06-16T06:51:40.014Z,12.60
2018-06-16T06:53:44.871Z,11.70
2018-06-16T06:55:49.624Z,11.13
2018-06-16T06:57:54.304Z,11.43
2018-06-16T06:59:59.117Z,10.97
2018-06-16T07:02:03.913Z,10.87
2018-06-16T07:04:08.817Z,11.37
2018-06-16T07:06:13.600Z,10.50
2018-06-16T07:08:18.421Z,10.60
2018-06-16T07:10:24.848Z,11.63
2018-06-16T07:12:29.599Z,9.90
2018-06-16T07:14:34.305Z,10.73
2018-06-16T07:16:39.259Z,10.13
2018-06-16T07:18:43.979Z,10.60
2018-06-16T07:20:48.702Z,9.23
2018-06-16T07:22:53.354Z,9.70
2018-06-16T07:24:58.197Z,9.77
2018-06-16T07:27:03.034Z,10.00
2018-06-16T07:29:07.907Z,10.60
2018-06-16T07:31:12.572Z,9.73
2018-06-16T07:33:17.345Z,11.00
2018-06-16T07:35:22.799Z,11.13
2018-06-16T07:37:28.156Z,11.90
2018-06-16T07:39:32.903Z,11.67
2018-06-16T07:41:38.009Z,10.80
2018-06-16T07:43:44.131Z,12.07
2018-06-16T07:45:49.040Z,12.07
2018-06-16T07:47:53.794Z,12.07
2018-06-16T07:49:58.495Z,10.97
2018-06-16T07:52:05.413Z,10.90
2018-06-16T07:54:13.290Z,11.20
2018-06-16T07:56:17.611Z,11.20
2018-06-16T07:58:22.223Z,11.40
2018-06-16T08:00:26.990Z,10.63
2018-06-16T08:02:31.674Z,11.50
2018-06-16T08:04:36.395Z,10.77
2018-06-16T08:06:42.967Z,11.20
2018-06-16T08:08:47.964Z,11.80
2018-06-16T08:10:52.649Z,11.23
2018-06-16T08:12:57.395Z,10.90
2018-06-16T08:15:03.097Z,10.20
2018-06-16T08:17:07.830Z,11.27
2018-06-16T08:19:12.494Z,10.67
2018-06-16T08:21:17.374Z,11.37
2018-06-16T08:23:22.146Z,12.27
2018-06-16T08:25:29.416Z,10.30
2018-06-16T08:27:34.199Z,11.50
2018-06-16T08:29:38.944Z,11.10
2018-06-16T08:31:44.714Z,10.83
2018-06-16T08:33:50.811Z,10.60
2018-06-16T08:35:55.705Z,9.43
2018-06-16T08:38:01.609Z,9.87
2018-06-16T08:40:06.445Z,10.50
2018-06-16T08:42:12.612Z,9.80
2018-06-16T08:44:17.959Z,10.37
2018-06-16T08:46:23.982Z,10.60
2018-06-16T08:48:28.636Z,10.77
2018-06-16T08:50:33.293Z,11.37
2018-06-16T08:52:38.159Z,10.17
2018-06-16T08:54:42.823Z,10.70
2018-06-16T08:56:47.495Z,10.33
2018-06-16T08:58:52.152Z,9.63
2018-06-16T09:00:57.015Z,10.50
2018-06-16T09:03:01.669Z,9.50
2018-06-16T09:05:06.517Z,9.27
2018-06-16T09:07:11.215Z,10.40
2018-06-16T09:09:15.862Z,9.83
2018-06-16T09:11:20.715Z,10.27
2018-06-16T09:13:25.521Z,10.10
2018-06-16T09:15:30.339Z,9.57
2018-06-16T09:17:35.064Z,9.73
2018-06-16T09:19:39.829Z,9.50
2018-06-16T09:21:44.582Z,10.20
2018-06-16T09:23:49.263Z,9.90
2018-06-16T09:25:54.097Z,10.97
2018-06-16T09:27:59.898Z,10.07
2018-06-16T09:30:04.759Z,9.03
2018-06-16T09:32:09.501Z,9.70
2018-06-16T09:34:14.196Z,9.00
2018-06-16T09:36:18.963Z,8.77
2018-06-16T09:38:23.607Z,9.17
2018-06-16T09:40:28.291Z,8.70
2018-06-16T09:42:33.000Z,8.73
2018-06-16T09:44:37.574Z,9.00
2018-06-16T09:46:42.212Z,8.23
2018-06-16T09:48:46.949Z,8.50
2018-06-16T09:50:51.584Z,8.27
2018-06-16T09:52:56.243Z,8.70
2018-06-16T09:55:00.928Z,8.80
2018-06-16T09:57:05.677Z,9.40
2018-06-16T09:59:10.353Z,8.90
2018-06-16T10:01:15.112Z,8.00
2018-06-16T10:03:19.791Z,7.93
2018-06-16T10:05:24.459Z,8.33
2018-06-16T10:07:29.101Z,7.00
2018-06-16T10:09:33.667Z,7.57
2018-06-16T10:11:38.346Z,7.60
2018-06-16T10:13:43.160Z,7.37
2018-06-16T10:15:47.869Z,6.40
2018-06-16T10:17:52.591Z,7.17
2018-06-16T10:19:57.289Z,7.23
2018-06-16T10:22:01.940Z,7.37
2018-06-16T10:24:06.845Z,6.70
2018-06-16T10:26:11.452Z,6.87
2018-06-16T10:28:16.189Z,7.40
2018-06-16T10:30:20.882Z,6.27
2018-06-16T10:32:25.606Z,6.20
2018-06-16T10:34:30.316Z,5.50
2018-06-16T10:36:34.877Z,6.17
2018-06-16T10:38:39.643Z,5.93
2018-06-16T10:40:44.272Z,5.53
2018-06-16T10:42:48.904Z,5.30
2018-06-16T10:44:53.648Z,5.33
2018-06-16T10:46:58.331Z,5.13
2018-06-16T10:49:03.010Z,3.67
2018-06-16T10:51:07.641Z,4.37
2018-06-16T10:53:12.502Z,4.30
2018-06-16T10:55:17.349Z,4.40
2018-06-16T10:57:22.109Z,4.57
2018-06-16T10:59:26.901Z,4.77
2018-06-16T11:01:31.541Z,4.57
2018-06-16T11:03:36.203Z,5.60
2018-06-16T11:05:40.860Z,4.47
2018-06-16T11:07:45.526Z,4.83
2018-06-16T11:09:50.133Z,4.70
2018-06-16T11:11:55.020Z,4.63
2018-06-16T11:13:59.698Z,5.13
2018-06-16T11:16:04.346Z,5.53
2018-06-16T11:18:09.149Z,5.17
2018-06-16T11:20:13.756Z,4.83
2018-06-16T11:22:17.980Z,4.90
2018-06-16T11:24:22.576Z,4.90
2018-06-16T11:26:27.606Z,4.70
2018-06-16T11:28:55.687Z,4.87
2018-06-16T11:31:06.093Z,4.27
2018-06-16T11:33:10.959Z,4.37
2018-06-16T11:35:15.662Z,4.47
2018-06-16T11:37:20.499Z,4.67
2018-06-16T11:39:25.271Z,4.70
2018-06-16T11:41:33.948Z,4.50
2018-06-16T11:43:39.092Z,4.83
2018-06-16T11:45:45.052Z,4.00
2018-06-16T11:47:50.621Z,4.80
2018-06-16T11:49:55.475Z,5.20
2018-06-16T11:52:00.242Z,5.10
2018-06-16T11:54:05.868Z,3.90
2018-06-16T11:56:10.654Z,3.73
2018-06-16T11:58:15.750Z,3.90
2018-06-16T12:00:20.462Z,3.27
2018-06-16T12:02:25.102Z,4.07
2018-06-16T12:04:29.831Z,3.93
2018-06-16T12:06:34.565Z,3.83
2018-06-16T12:08:39.536Z,3.90
2018-06-16T12:10:44.133Z,3.67
2018-06-16T12:12:48.853Z,3.37
2018-06-16T12:14:53.667Z,3.93
2018-06-16T12:16:58.226Z,3.70
2018-06-16T12:19:04.157Z,4.00
2018-06-16T12:21:08.820Z,4.00
2018-06-16T12:23:13.526Z,3.80
2018-06-16T12:25:18.472Z,4.67
2018-06-16T12:27:23.417Z,4.20
2018-06-16T12:29:28.197Z,3.73
2018-06-16T12:31:34.165Z,3.73
2018-06-16T12:33:38.888Z,4.43
2018-06-16T12:35:46.514Z,3.27
2018-06-16T12:37:51.236Z,3.80
2018-06-16T12:39:58.076Z,3.80
2018-06-16T12:42:03.169Z,4.10
2018-06-16T12:44:07.989Z,3.43
2018-06-16T12:46:12.479Z,4.00
2018-06-16T12:48:17.029Z,3.40
2018-06-16T12:50:22.920Z,3.73
2018-06-16T12:52:27.901Z,3.70
2018-06-16T12:54:32.660Z,3.57
2018-06-16T12:56:37.488Z,3.40
2018-06-16T12:58:45.413Z,3.40
2018-06-16T13:00:50.061Z,3.60
2018-06-16T13:02:55.045Z,3.40
2018-06-16T13:04:59.742Z,4.00
2018-06-16T13:07:04.498Z,3.33
2018-06-16T13:09:09.161Z,3.73
2018-06-16T13:11:14.291Z,3.00
2018-06-16T13:13:18.936Z,3.47
2018-06-16T13:15:23.997Z,3.70
2018-06-16T13:17:31.448Z,3.40
2018-06-16T13:19:38.088Z,54.80
2018-06-16T13:21:42.746Z,8.53
2018-06-16T13:23:47.460Z,3.70
2018-06-16T13:25:52.160Z,4.43
2018-06-16T13:27:56.900Z,3.67
2018-06-16T13:30:01.626Z,3.80
2018-06-16T13:32:06.350Z,3.83
2018-06-16T13:34:11.083Z,3.53
2018-06-16T13:36:18.030Z,4.03
2018-06-16T13:38:22.787Z,3.80
2018-06-16T13:40:27.543Z,3.20
2018-06-16T13:42:33.055Z,3.70
2018-06-16T13:44:37.886Z,2.90
2018-06-16T13:46:42.606Z,2.87
2018-06-16T13:48:47.243Z,2.80
2018-06-16T13:50:52.040Z,2.87
2018-06-16T13:52:58.013Z,3.77
2018-06-16T13:55:03.631Z,3.20
2018-06-16T13:57:08.344Z,3.10
2018-06-16T13:59:15.097Z,3.60
2018-06-16T14:01:20.855Z,3.60
2018-06-16T14:03:25.737Z,2.90
2018-06-16T14:05:30.547Z,2.30
2018-06-16T14:07:35.260Z,2.50
2018-06-16T14:09:39.973Z,2.37
2018-06-16T14:11:44.707Z,2.30
2018-06-16T14:13:50.597Z,2.50
2018-06-16T14:15:55.373Z,2.30
2018-06-16T14:18:00.128Z,2.60
2018-06-16T14:20:05.642Z,2.97
2018-06-16T14:22:10.211Z,2.70
2018-06-16T14:24:14.949Z,2.63
2018-06-16T14:26:19.673Z,2.40
2018-06-16T14:28:24.351Z,2.80
2018-06-16T14:30:29.029Z,2.50
2018-06-16T14:32:33.686Z,2.67
2018-06-16T14:34:38.386Z,2.97
2018-06-16T14:36:49.393Z,2.50
2018-06-16T14:38:54.133Z,2.63
2018-06-16T14:40:58.823Z,2.57
2018-06-16T14:43:03.618Z,3.10
2018-06-16T14:45:08.365Z,2.70
2018-06-16T14:47:13.117Z,2.87
2018-06-16T14:49:18.187Z,2.30
2018-06-16T14:51:23.038Z,3.23
2018-06-16T14:53:27.715Z,2.47
2018-06-16T14:55:32.482Z,2.70
2018-06-16T14:57:37.170Z,2.50
2018-06-16T14:59:41.936Z,2.93
2018-06-16T15:01:46.640Z,2.67
2018-06-16T15:03:51.369Z,2.60
2018-06-16T15:05:56.403Z,2.20
2018-06-16T15:08:01.123Z,2.40
2018-06-16T15:10:05.868Z,2.70
2018-06-16T15:12:10.901Z,2.70
2018-06-16T15:14:15.535Z,2.87
2018-06-16T15:16:20.247Z,2.50
2018-06-16T15:18:24.951Z,2.60
2018-06-16T15:20:33.337Z,2.30
2018-06-16T15:22:39.102Z,2.50
2018-06-16T15:24:43.813Z,2.40
2018-06-16T15:26:48.431Z,3.33
2018-06-16T15:28:53.395Z,2.90
2018-06-16T15:30:58.102Z,2.80
2018-06-16T15:33:03.006Z,2.70
2018-06-16T15:35:07.836Z,3.10
2018-06-16T15:37:12.687Z,2.83
2018-06-16T15:39:17.482Z,2.73
2018-06-16T15:41:22.320Z,2.60
2018-06-16T15:43:26.992Z,2.80
2018-06-16T15:45:31.732Z,2.90
2018-06-16T15:47:36.494Z,2.60
2018-06-16T15:49:41.209Z,2.87
2018-06-16T15:51:45.862Z,3.07
2018-06-16T15:53:50.557Z,2.83
2018-06-16T15:55:55.311Z,3.37
2018-06-16T15:58:00.112Z,2.93
2018-06-16T16:00:05.251Z,2.50
2018-06-16T16:02:09.953Z,3.67
2018-06-16T16:04:15.174Z,3.37
2018-06-16T16:06:19.912Z,3.03
2018-06-16T16:08:24.606Z,3.40
2018-06-16T16:10:29.348Z,2.93
2018-06-16T16:12:34.012Z,3.00
2018-06-16T16:14:40.311Z,3.10
2018-06-16T16:16:45.175Z,3.27
2018-06-16T16:18:49.889Z,3.00
2018-06-16T16:20:54.732Z,4.40
2018-06-16T16:22:59.415Z,3.97
2018-06-16T16:25:04.396Z,7.50
2018-06-16T16:27:09.101Z,3.30
2018-06-16T16:29:13.704Z,3.50
2018-06-16T16:31:18.396Z,3.13
2018-06-16T16:33:23.205Z,2.87
2018-06-16T16:35:27.998Z,2.97
2018-06-16T16:37:32.706Z,2.63
2018-06-16T16:39:38.618Z,3.20
2018-06-16T16:41:44.425Z,2.80
2018-06-16T16:43:51.073Z,2.90
2018-06-16T16:45:58.951Z,3.13
2018-06-16T16:48:06.791Z,2.73
2018-06-16T16:50:14.222Z,2.83
2018-06-16T16:52:20.424Z,3.20
2018-06-16T16:54:25.924Z,3.10
2018-06-16T16:56:30.941Z,3.13
2018-06-16T16:58:41.542Z,3.20
2018-06-16T17:00:50.876Z,2.77
2018-06-16T17:02:55.580Z,2.90
2018-06-16T17:05:00.238Z,2.70
2018-06-16T17:07:05.459Z,3.30
2018-06-16T17:09:11.685Z,3.20
2018-06-16T17:11:17.568Z,3.10
2018-06-16T17:13:22.596Z,3.30
2018-06-16T17:15:27.526Z,2.70
2018-06-16T17:17:50.833Z,3.57
2018-06-16T17:19:55.547Z,3.33
2018-06-16T17:22:00.404Z,2.90
2018-06-16T17:24:05.757Z,3.00
2018-06-16T17:26:10.261Z,2.60
2018-06-16T17:28:15.030Z,3.60
2018-06-16T17:30:19.765Z,2.90
2018-06-16T17:32:24.572Z,3.07
2018-06-16T17:34:29.576Z,2.90
2018-06-16T17:36:35.146Z,3.03
2018-06-16T17:38:42.253Z,2.87
2018-06-16T17:40:47.052Z,3.20
2018-06-16T17:42:52.824Z,3.00
2018-06-16T17:44:59.583Z,4.13
2018-06-16T17:47:05.490Z,3.73
2018-06-16T17:49:12.075Z,3.53
2018-06-16T17:51:17.733Z,3.97
2018-06-16T17:53:23.718Z,3.30
2018-06-16T17:55:29.250Z,3.43
2018-06-16T17:57:35.136Z,3.30
2018-06-16T17:59:43.299Z,3.40
2018-06-16T18:01:49.197Z,3.60
2018-06-16T18:03:54.816Z,3.50
2018-06-16T18:06:00.854Z,3.60
2018-06-16T18:08:09.115Z,3.03
2018-06-16T18:10:16.265Z,3.20
2018-06-16T18:12:23.926Z,3.83
2018-06-16T18:14:29.434Z,3.10
2018-06-16T18:16:36.620Z,3.53
2018-06-16T18:18:41.497Z,3.03
2018-06-16T18:20:46.191Z,3.80
2018-06-16T18:22:50.910Z,3.33
2018-06-16T18:24:55.575Z,3.60
2018-06-16T18:27:00.412Z,3.30
2018-06-16T18:29:05.615Z,4.30
2018-06-16T18:31:10.472Z,3.70
2018-06-16T18:33:15.602Z,4.00
2018-06-16T18:35:20.867Z,3.37
2018-06-16T18:37:27.055Z,3.83
2018-06-16T18:39:35.309Z,6.60
2018-06-16T18:41:41.109Z,3.90
2018-06-16T18:43:45.835Z,3.87
2018-06-16T18:45:50.689Z,3.83
2018-06-16T18:47:55.678Z,9.10
2018-06-16T18:50:03.376Z,5.50
2018-06-16T18:52:10.266Z,4.50
2018-06-16T18:54:17.075Z,5.13
2018-06-16T18:56:24.241Z,3.80
2018-06-16T18:58:29.446Z,3.50
2018-06-16T19:00:39.225Z,3.50
2018-06-16T19:02:49.473Z,3.33
2018-06-16T19:04:54.517Z,3.13
2018-06-16T19:07:15.729Z,3.10
2018-06-16T19:09:22.585Z,2.80
2018-06-16T19:11:40.440Z,4.10
2018-06-16T19:13:45.178Z,2.60
2018-06-16T19:15:50.655Z,2.73
2018-06-16T19:18:14.457Z,2.80
2018-06-16T19:20:22.263Z,3.03
2018-06-16T19:22:27.131Z,2.80
2018-06-16T19:24:31.763Z,3.10
2018-06-16T19:26:36.630Z,3.30
2018-06-16T19:28:41.373Z,3.30
2018-06-16T19:30:46.053Z,2.90
2018-06-16T19:32:50.706Z,3.23
2018-06-16T19:34:54.929Z,3.10
2018-06-16T19:36:59.504Z,3.53
2018-06-16T19:39:05.880Z,2.87
2018-06-16T19:41:10.482Z,3.00
2018-06-16T19:43:15.222Z,3.70
2018-06-16T19:45:19.814Z,3.10
2018-06-16T19:47:25.173Z,3.20
2018-06-16T19:49:29.780Z,3.40
2018-06-16T19:51:34.588Z,4.13
2018-06-16T19:53:39.493Z,3.50
2018-06-16T19:55:44.251Z,3.23
2018-06-16T19:57:49.042Z,3.07
2018-06-16T19:59:53.925Z,3.43
2018-06-16T20:01:58.848Z,3.20
2018-06-16T20:04:03.500Z,3.53
2018-06-16T20:06:08.368Z,2.93
2018-06-16T20:08:13.055Z,3.50
2018-06-16T20:10:17.815Z,3.50
2018-06-16T20:12:22.493Z,3.60
2018-06-16T20:14:28.056Z,3.33
2018-06-16T20:16:32.814Z,3.60
2018-06-16T20:18:37.485Z,3.70
2018-06-16T20:20:51.577Z,2.77
2018-06-16T20:22:58.427Z,3.60
2018-06-16T20:25:03.479Z,3.13
2018-06-16T20:27:08.368Z,3.43
2018-06-16T20:29:14.319Z,3.73
2018-06-16T20:31:23.190Z,3.10
2018-06-16T20:33:28.229Z,4.00
2018-06-16T20:35:33.079Z,3.90
2018-06-16T20:37:37.763Z,3.97
2018-06-16T20:39:42.354Z,3.50
2018-06-16T20:41:47.089Z,3.27
2018-06-16T20:43:52.088Z,4.20
2018-06-16T20:45:56.875Z,4.20
2018-06-16T20:48:01.668Z,4.63
2018-06-16T20:50:07.712Z,3.73
2018-06-16T20:52:13.560Z,3.50
2018-06-16T20:54:18.152Z,3.53
2018-06-16T20:56:23.032Z,3.30
2018-06-16T20:58:27.616Z,3.40
2018-06-16T21:00:32.351Z,3.60
2018-06-16T21:02:37.364Z,3.73
2018-06-16T21:04:42.123Z,3.57
2018-06-16T21:06:46.757Z,3.30
2018-06-16T21:08:51.438Z,3.57
2018-06-16T21:10:56.069Z,2.90
2018-06-16T21:13:00.851Z,3.00
2018-06-16T21:15:05.687Z,3.20
2018-06-16T21:17:10.500Z,3.53
2018-06-16T21:19:15.127Z,3.20
2018-06-16T21:21:19.862Z,3.40
2018-06-16T21:23:24.509Z,3.40
2018-06-16T21:25:29.369Z,3.77
2018-06-16T21:27:34.063Z,3.23
2018-06-16T21:29:38.784Z,3.60
2018-06-16T21:31:43.485Z,3.20
2018-06-16T21:33:48.195Z,3.40
2018-06-16T21:35:52.857Z,3.20
2018-06-16T21:37:57.639Z,3.53
2018-06-16T21:40:02.309Z,3.27
2018-06-16T21:42:07.422Z,3.90
2018-06-16T21:44:12.091Z,3.50
2018-06-16T21:46:16.759Z,3.20
2018-06-16T21:48:21.062Z,3.50
2018-06-16T21:50:25.658Z,3.67
2018-06-16T21:52:30.315Z,3.47
2018-06-16T21:54:34.996Z,3.97
2018-06-16T21:56:39.862Z,2.90
2018-06-16T21:58:44.772Z,3.47
2018-06-16T22:00:49.446Z,3.30
2018-06-16T22:02:54.039Z,3.10
2018-06-16T22:04:59.777Z,3.53
2018-06-16T22:07:04.837Z,4.00
2018-06-16T22:09:10.973Z,3.00
2018-06-16T22:11:23.153Z,3.67
2018-06-16T22:13:28.196Z,3.13
2018-06-16T22:15:35.350Z,3.67
2018-06-16T22:17:40.436Z,3.17
2018-06-16T22:19:45.544Z,3.30
2018-06-16T22:21:50.936Z,3.10
2018-06-16T22:23:56.093Z,3.20
2018-06-16T22:26:01.205Z,3.07
2018-06-16T22:28:06.236Z,3.43
2018-06-16T22:30:11.049Z,2.83
2018-06-16T22:32:16.974Z,2.97
2018-06-16T22:34:21.975Z,3.23
2018-06-16T22:36:26.724Z,3.03
2018-06-16T22:38:31.761Z,3.10
2018-06-16T22:40:36.537Z,3.10
2018-06-16T22:42:41.431Z,3.10
2018-06-16T22:44:46.097Z,2.97
2018-06-16T22:46:50.795Z,3.50
2018-06-16T22:48:55.433Z,2.67
2018-06-16T22:51:00.080Z,3.10
2018-06-16T22:53:04.710Z,3.07
2018-06-16T22:55:11.013Z,3.23
2018-06-16T22:57:15.582Z,2.70
2018-06-16T22:59:20.326Z,3.57
2018-06-16T23:01:25.049Z,3.23
2018-06-16T23:03:29.770Z,3.50
2018-06-16T23:05:34.450Z,3.10
2018-06-16T23:07:39.146Z,3.00
2018-06-16T23:09:43.777Z,2.90
2018-06-16T23:11:48.534Z,3.20
2018-06-16T23:13:53.778Z,3.43
2018-06-16T23:15:58.502Z,3.37
2018-06-16T23:18:03.204Z,3.50
2018-06-16T23:20:07.890Z,3.60
2018-06-16T23:22:12.557Z,4.07
2018-06-16T23:24:17.171Z,3.90
2018-06-16T23:26:21.903Z,3.47
2018-06-16T23:28:26.490Z,3.07
2018-06-16T23:30:31.212Z,3.10
2018-06-16T23:32:35.808Z,3.83
2018-06-16T23:34:40.570Z,3.40
2018-06-16T23:36:45.266Z,3.63
2018-06-16T23:38:49.960Z,3.40
2018-06-16T23:40:54.626Z,2.97
2018-06-16T23:42:59.312Z,3.23
2018-06-16T23:45:03.983Z,4.20
2018-06-16T23:47:08.719Z,3.23
2018-06-16T23:49:13.447Z,3.43
2018-06-16T23:51:18.177Z,3.67
2018-06-16T23:53:22.731Z,3.30
2018-06-16T23:55:27.379Z,3.17
2018-06-16T23:57:32.038Z,3.90
2018-06-16T23:59:36.777Z,3.50
